sensor_id;sensor_type;location;lat;lon;timestamp;temperature;humidity
41628;DHT22;27321;50.816;6.054;2024-03-17T00:00:29;9.60;70.90
41628;DHT22;27321;50.816;6.054;2024-03-17T00:03:31;9.70;70.90
41628;DHT22;27321;50.816;6.054;2024-03-17T00:06:32;9.70;70.90
41628;DHT22;27321;50.816;6.054;2024-03-17T00:09:33;9.70;70.80
41628;DHT22;27321;50.816;6.054;2024-03-17T00:12:34;9.70;70.80
41628;DHT22;27321;50.816;6.054;2024-03-17T00:15:35;9.70;70.80
41628;DHT22;27321;50.816;6.054;2024-03-17T00:18:36;9.70;70.90
41628;DHT22;27321;50.816;6.054;2024-03-17T00:21:37;9.70;70.80
41628;DHT22;27321;50.816;6.054;2024-03-17T00:24:38;9.70;70.90
41628;DHT22;27321;50.816;6.054;2024-03-17T00:27:39;9.70;71.00
41628;DHT22;27321;50.816;6.054;2024-03-17T00:30:41;9.70;70.50
41628;DHT22;27321;50.816;6.054;2024-03-17T00:33:42;9.70;70.90
41628;DHT22;27321;50.816;6.054;2024-03-17T00:36:45;9.70;70.80
41628;DHT22;27321;50.816;6.054;2024-03-17T00:39:47;9.70;70.70
41628;DHT22;27321;50.816;6.054;2024-03-17T00:42:48;9.60;70.80
41628;DHT22;27321;50.816;6.054;2024-03-17T00:45:52;9.60;71.00
41628;DHT22;27321;50.816;6.054;2024-03-17T00:48:53;9.60;70.60
41628;DHT22;27321;50.816;6.054;2024-03-17T00:51:54;9.50;70.50
41628;DHT22;27321;50.816;6.054;2024-03-17T00:54:55;9.50;70.60
41628;DHT22;27321;50.816;6.054;2024-03-17T00:57:56;9.50;70.60
41628;DHT22;27321;50.816;6.054;2024-03-17T01:00:57;9.40;70.40
41628;DHT22;27321;50.816;6.054;2024-03-17T01:03:58;9.40;70.60
41628;DHT22;27321;50.816;6.054;2024-03-17T01:06:59;9.50;70.50
41628;DHT22;27321;50.816;6.054;2024-03-17T01:10:05;9.50;70.60
41628;DHT22;27321;50.816;6.054;2024-03-17T01:13:09;9.40;70.50
41628;DHT22;27321;50.816;6.054;2024-03-17T01:16:13;9.40;70.60
41628;DHT22;27321;50.816;6.054;2024-03-17T01:19:15;9.30;70.30
41628;DHT22;27321;50.816;6.054;2024-03-17T01:22:16;9.30;70.60
41628;DHT22;27321;50.816;6.054;2024-03-17T01:25:17;9.30;70.40
41628;DHT22;27321;50.816;6.054;2024-03-17T01:28:18;9.30;70.20
41628;DHT22;27321;50.816;6.054;2024-03-17T01:31:19;9.30;70.30
41628;DHT22;27321;50.816;6.054;2024-03-17T01:34:20;9.20;70.20
41628;DHT22;27321;50.816;6.054;2024-03-17T01:37:21;9.10;70.20
41628;DHT22;27321;50.816;6.054;2024-03-17T01:40:22;9.10;70.00
41628;DHT22;27321;50.816;6.054;2024-03-17T01:43:23;9.00;70.10
41628;DHT22;27321;50.816;6.054;2024-03-17T01:46:24;9.00;70.20
41628;DHT22;27321;50.816;6.054;2024-03-17T01:49:25;8.90;70.20
41628;DHT22;27321;50.816;6.054;2024-03-17T01:52:27;8.90;70.40
41628;DHT22;27321;50.816;6.054;2024-03-17T01:55:28;8.80;70.50
41628;DHT22;27321;50.816;6.054;2024-03-17T01:58:30;8.80;70.30
41628;DHT22;27321;50.816;6.054;2024-03-17T02:01:31;8.80;70.20
41628;DHT22;27321;50.816;6.054;2024-03-17T02:04:32;8.80;70.10
41628;DHT22;27321;50.816;6.054;2024-03-17T02:07:35;8.80;70.30
41628;DHT22;27321;50.816;6.054;2024-03-17T02:10:36;8.80;70.10
41628;DHT22;27321;50.816;6.054;2024-03-17T02:13:38;8.80;69.80
41628;DHT22;27321;50.816;6.054;2024-03-17T02:16:39;8.80;70.00
41628;DHT22;27321;50.816;6.054;2024-03-17T02:19:40;8.70;70.30
41628;DHT22;27321;50.816;6.054;2024-03-17T02:22:40;8.70;70.40
41628;DHT22;27321;50.816;6.054;2024-03-17T02:25:42;8.70;70.30
41628;DHT22;27321;50.816;6.054;2024-03-17T02:28:45;8.70;70.40
41628;DHT22;27321;50.816;6.054;2024-03-17T02:31:47;8.80;70.10
41628;DHT22;27321;50.816;6.054;2024-03-17T02:34:48;8.80;70.30
41628;DHT22;27321;50.816;6.054;2024-03-17T02:37:49;8.70;70.00
41628;DHT22;27321;50.816;6.054;2024-03-17T02:40:50;8.70;70.10
41628;DHT22;27321;50.816;6.054;2024-03-17T02:43:51;8.70;70.10
41628;DHT22;27321;50.816;6.054;2024-03-17T02:46:52;8.70;70.00
41628;DHT22;27321;50.816;6.054;2024-03-17T02:49:53;8.70;70.10
41628;DHT22;27321;50.816;6.054;2024-03-17T02:52:55;8.60;70.00
41628;DHT22;27321;50.816;6.054;2024-03-17T02:55:56;8.60;70.20
41628;DHT22;27321;50.816;6.054;2024-03-17T02:58:57;8.60;70.00
41628;DHT22;27321;50.816;6.054;2024-03-17T03:01:58;8.50;69.70
41628;DHT22;27321;50.816;6.054;2024-03-17T03:05:00;8.50;70.10
41628;DHT22;27321;50.816;6.054;2024-03-17T03:08:30;8.50;69.90
41628;DHT22;27321;50.816;6.054;2024-03-17T03:11:31;8.50;70.20
41628;DHT22;27321;50.816;6.054;2024-03-17T03:14:32;8.50;70.00
41628;DHT22;27321;50.816;6.054;2024-03-17T03:17:35;8.40;70.40
41628;DHT22;27321;50.816;6.054;2024-03-17T03:20:36;8.50;70.30
41628;DHT22;27321;50.816;6.054;2024-03-17T03:23:37;8.50;70.20
41628;DHT22;27321;50.816;6.054;2024-03-17T03:26:38;8.40;70.30
41628;DHT22;27321;50.816;6.054;2024-03-17T03:29:39;8.50;70.40
41628;DHT22;27321;50.816;6.054;2024-03-17T03:32:41;8.50;70.40
41628;DHT22;27321;50.816;6.054;2024-03-17T03:35:42;8.60;70.40
41628;DHT22;27321;50.816;6.054;2024-03-17T03:38:44;8.60;70.50
41628;DHT22;27321;50.816;6.054;2024-03-17T03:41:44;8.60;70.40
41628;DHT22;27321;50.816;6.054;2024-03-17T03:44:46;8.60;70.50
41628;DHT22;27321;50.816;6.054;2024-03-17T03:47:50;8.60;70.40
41628;DHT22;27321;50.816;6.054;2024-03-17T03:50:50;8.70;70.50
41628;DHT22;27321;50.816;6.054;2024-03-17T03:53:51;8.70;70.50
41628;DHT22;27321;50.816;6.054;2024-03-17T03:56:53;8.70;70.60
41628;DHT22;27321;50.816;6.054;2024-03-17T03:59:55;8.70;70.80
41628;DHT22;27321;50.816;6.054;2024-03-17T04:02:56;8.70;70.80
41628;DHT22;27321;50.816;6.054;2024-03-17T04:06:05;8.80;70.80
41628;DHT22;27321;50.816;6.054;2024-03-17T04:09:07;8.80;70.80
41628;DHT22;27321;50.816;6.054;2024-03-17T04:12:10;8.80;70.50
41628;DHT22;27321;50.816;6.054;2024-03-17T04:15:11;8.80;70.60
41628;DHT22;27321;50.816;6.054;2024-03-17T04:18:12;8.90;70.60
41628;DHT22;27321;50.816;6.054;2024-03-17T04:21:13;8.90;70.40
41628;DHT22;27321;50.816;6.054;2024-03-17T04:24:14;8.90;70.20
41628;DHT22;27321;50.816;6.054;2024-03-17T04:27:15;8.90;69.90
41628;DHT22;27321;50.816;6.054;2024-03-17T04:30:16;8.80;70.20
41628;DHT22;27321;50.816;6.054;2024-03-17T04:33:17;8.80;70.40
41628;DHT22;27321;50.816;6.054;2024-03-17T04:36:18;8.80;70.50
41628;DHT22;27321;50.816;6.054;2024-03-17T04:39:20;8.80;70.60
41628;DHT22;27321;50.816;6.054;2024-03-17T04:42:20;8.70;70.50
41628;DHT22;27321;50.816;6.054;2024-03-17T04:45:21;8.60;70.50
41628;DHT22;27321;50.816;6.054;2024-03-17T04:48:22;8.50;70.70
41628;DHT22;27321;50.816;6.054;2024-03-17T04:51:23;8.50;70.70
41628;DHT22;27321;50.816;6.054;2024-03-17T04:54:24;8.50;70.80
41628;DHT22;27321;50.816;6.054;2024-03-17T04:57:25;8.40;70.80
41628;DHT22;27321;50.816;6.054;2024-03-17T05:00:26;8.40;70.70
41628;DHT22;27321;50.816;6.054;2024-03-17T05:03:27;8.30;71.00
41628;DHT22;27321;50.816;6.054;2024-03-17T05:06:27;8.30;70.70
41628;DHT22;27321;50.816;6.054;2024-03-17T05:09:28;8.30;70.90
41628;DHT22;27321;50.816;6.054;2024-03-17T05:12:29;8.30;70.80
41628;DHT22;27321;50.816;6.054;2024-03-17T05:15:30;8.30;70.80
41628;DHT22;27321;50.816;6.054;2024-03-17T05:18:32;8.30;71.00
41628;DHT22;27321;50.816;6.054;2024-03-17T05:21:36;8.20;70.80
41628;DHT22;27321;50.816;6.054;2024-03-17T05:24:37;8.20;70.80
41628;DHT22;27321;50.816;6.054;2024-03-17T05:27:38;8.10;70.90
41628;DHT22;27321;50.816;6.054;2024-03-17T05:30:38;8.10;70.70
41628;DHT22;27321;50.816;6.054;2024-03-17T05:33:40;8.10;71.10
41628;DHT22;27321;50.816;6.054;2024-03-17T05:36:41;8.00;70.90
41628;DHT22;27321;50.816;6.054;2024-03-17T05:39:42;8.00;71.00
41628;DHT22;27321;50.816;6.054;2024-03-17T05:42:42;8.00;71.10
41628;DHT22;27321;50.816;6.054;2024-03-17T05:45:43;8.00;71.10
41628;DHT22;27321;50.816;6.054;2024-03-17T05:48:44;8.00;71.10
41628;DHT22;27321;50.816;6.054;2024-03-17T05:51:46;8.00;71.10
41628;DHT22;27321;50.816;6.054;2024-03-17T05:54:47;8.00;71.10
41628;DHT22;27321;50.816;6.054;2024-03-17T05:57:48;8.00;71.10
41628;DHT22;27321;50.816;6.054;2024-03-17T06:00:49;8.00;71.10
41628;DHT22;27321;50.816;6.054;2024-03-17T06:03:49;8.00;71.20
41628;DHT22;27321;50.816;6.054;2024-03-17T06:06:50;8.00;71.10
41628;DHT22;27321;50.816;6.054;2024-03-17T06:09:51;8.00;71.10
41628;DHT22;27321;50.816;6.054;2024-03-17T06:12:52;8.00;71.20
41628;DHT22;27321;50.816;6.054;2024-03-17T06:15:54;8.00;71.30
41628;DHT22;27321;50.816;6.054;2024-03-17T06:18:55;8.00;71.60
41628;DHT22;27321;50.816;6.054;2024-03-17T06:21:56;8.10;71.60
41628;DHT22;27321;50.816;6.054;2024-03-17T06:24:58;8.20;71.50
41628;DHT22;27321;50.816;6.054;2024-03-17T06:27:59;8.20;71.70
41628;DHT22;27321;50.816;6.054;2024-03-17T06:31:05;8.20;71.70
41628;DHT22;27321;50.816;6.054;2024-03-17T06:34:07;8.30;71.90
41628;DHT22;27321;50.816;6.054;2024-03-17T06:37:08;8.30;72.10
41628;DHT22;27321;50.816;6.054;2024-03-17T06:40:18;8.40;72.10
41628;DHT22;27321;50.816;6.054;2024-03-17T06:43:20;8.40;72.00
41628;DHT22;27321;50.816;6.054;2024-03-17T06:46:21;8.60;72.20
41628;DHT22;27321;50.816;6.054;2024-03-17T06:49:25;8.70;72.40
41628;DHT22;27321;50.816;6.054;2024-03-17T06:52:26;8.80;72.50
41628;DHT22;27321;50.816;6.054;2024-03-17T06:55:27;8.80;72.30
41628;DHT22;27321;50.816;6.054;2024-03-17T06:58:29;8.80;72.30
41628;DHT22;27321;50.816;6.054;2024-03-17T07:01:30;9.00;72.10
41628;DHT22;27321;50.816;6.054;2024-03-17T07:04:31;9.00;72.10
41628;DHT22;27321;50.816;6.054;2024-03-17T07:07:32;9.10;71.90
41628;DHT22;27321;50.816;6.054;2024-03-17T07:10:33;9.10;71.90
41628;DHT22;27321;50.816;6.054;2024-03-17T07:13:35;9.20;72.10
41628;DHT22;27321;50.816;6.054;2024-03-17T07:16:37;9.30;71.80
41628;DHT22;27321;50.816;6.054;2024-03-17T07:19:37;9.30;71.90
41628;DHT22;27321;50.816;6.054;2024-03-17T07:22:38;9.40;71.80
41628;DHT22;27321;50.816;6.054;2024-03-17T07:25:39;9.50;71.60
41628;DHT22;27321;50.816;6.054;2024-03-17T07:28:40;9.50;71.30
41628;DHT22;27321;50.816;6.054;2024-03-17T07:31:41;9.60;71.30
41628;DHT22;27321;50.816;6.054;2024-03-17T07:34:42;9.60;71.00
41628;DHT22;27321;50.816;6.054;2024-03-17T07:37:43;9.70;70.80
41628;DHT22;27321;50.816;6.054;2024-03-17T07:40:45;9.70;70.30
41628;DHT22;27321;50.816;6.054;2024-03-17T07:43:56;9.80;70.40
41628;DHT22;27321;50.816;6.054;2024-03-17T07:46:57;9.90;70.40
41628;DHT22;27321;50.816;6.054;2024-03-17T07:49:58;10.00;70.30
41628;DHT22;27321;50.816;6.054;2024-03-17T07:53:04;10.10;70.40
41628;DHT22;27321;50.816;6.054;2024-03-17T07:56:07;10.20;70.60
41628;DHT22;27321;50.816;6.054;2024-03-17T07:59:12;10.30;70.70
41628;DHT22;27321;50.816;6.054;2024-03-17T08:02:17;10.40;70.60
41628;DHT22;27321;50.816;6.054;2024-03-17T08:05:18;10.50;70.40
41628;DHT22;27321;50.816;6.054;2024-03-17T08:08:19;10.60;70.20
41628;DHT22;27321;50.816;6.054;2024-03-17T08:11:20;10.70;70.10
41628;DHT22;27321;50.816;6.054;2024-03-17T08:14:21;10.80;70.30
41628;DHT22;27321;50.816;6.054;2024-03-17T08:17:22;10.90;69.90
41628;DHT22;27321;50.816;6.054;2024-03-17T08:20:23;10.90;70.00
41628;DHT22;27321;50.816;6.054;2024-03-17T08:23:24;11.00;69.80
41628;DHT22;27321;50.816;6.054;2024-03-17T08:26:25;11.10;69.60
41628;DHT22;27321;50.816;6.054;2024-03-17T08:29:26;11.20;69.30
41628;DHT22;27321;50.816;6.054;2024-03-17T08:32:27;11.30;69.30
41628;DHT22;27321;50.816;6.054;2024-03-17T08:35:28;11.30;68.70
41628;DHT22;27321;50.816;6.054;2024-03-17T08:38:32;11.30;69.00
41628;DHT22;27321;50.816;6.054;2024-03-17T08:41:34;11.40;68.90
41628;DHT22;27321;50.816;6.054;2024-03-17T08:44:35;11.50;69.00
41628;DHT22;27321;50.816;6.054;2024-03-17T08:47:35;11.60;68.70
41628;DHT22;27321;50.816;6.054;2024-03-17T08:50:37;11.70;68.90
41628;DHT22;27321;50.816;6.054;2024-03-17T08:53:38;11.80;68.80
41628;DHT22;27321;50.816;6.054;2024-03-17T08:56:39;11.80;68.40
41628;DHT22;27321;50.816;6.054;2024-03-17T08:59:40;11.80;68.30
41628;DHT22;27321;50.816;6.054;2024-03-17T09:02:41;11.80;68.40
41628;DHT22;27321;50.816;6.054;2024-03-17T09:05:44;11.90;68.50
41628;DHT22;27321;50.816;6.054;2024-03-17T09:08:46;12.00;68.70
41628;DHT22;27321;50.816;6.054;2024-03-17T09:11:46;12.00;68.50
41628;DHT22;27321;50.816;6.054;2024-03-17T09:14:47;12.10;68.60
41628;DHT22;27321;50.816;6.054;2024-03-17T09:17:48;12.20;68.60
41628;DHT22;27321;50.816;6.054;2024-03-17T09:21:04;12.30;68.80
41628;DHT22;27321;50.816;6.054;2024-03-17T09:24:08;12.30;68.40
41628;DHT22;27321;50.816;6.054;2024-03-17T09:27:09;12.40;68.30
41628;DHT22;27321;50.816;6.054;2024-03-17T09:30:11;12.50;67.50
41628;DHT22;27321;50.816;6.054;2024-03-17T09:33:12;12.50;67.50
41628;DHT22;27321;50.816;6.054;2024-03-17T09:36:13;12.60;67.50
41628;DHT22;27321;50.816;6.054;2024-03-17T09:39:14;12.70;67.80
41628;DHT22;27321;50.816;6.054;2024-03-17T09:42:20;12.70;67.40
41628;DHT22;27321;50.816;6.054;2024-03-17T09:45:21;12.80;67.00
41628;DHT22;27321;50.816;6.054;2024-03-17T09:48:26;12.80;67.50
41628;DHT22;27321;50.816;6.054;2024-03-17T09:51:28;12.90;66.90
41628;DHT22;27321;50.816;6.054;2024-03-17T09:54:30;12.90;66.70
41628;DHT22;27321;50.816;6.054;2024-03-17T09:57:32;13.00;66.50
41628;DHT22;27321;50.816;6.054;2024-03-17T10:00:34;13.00;66.60
41628;DHT22;27321;50.816;6.054;2024-03-17T10:03:52;13.10;66.90
41628;DHT22;27321;50.816;6.054;2024-03-17T10:07:05;13.10;67.00
41628;DHT22;27321;50.816;6.054;2024-03-17T10:10:13;13.20;67.10
41628;DHT22;27321;50.816;6.054;2024-03-17T10:13:14;13.20;66.10
41628;DHT22;27321;50.816;6.054;2024-03-17T10:16:24;13.30;65.60
41628;DHT22;27321;50.816;6.054;2024-03-17T10:19:30;13.30;66.20
41628;DHT22;27321;50.816;6.054;2024-03-17T10:22:31;13.30;66.00
41628;DHT22;27321;50.816;6.054;2024-03-17T10:25:34;13.50;66.60
41628;DHT22;27321;50.816;6.054;2024-03-17T10:28:44;13.50;66.70
41628;DHT22;27321;50.816;6.054;2024-03-17T10:31:45;13.60;65.80
41628;DHT22;27321;50.816;6.054;2024-03-17T10:34:46;13.80;65.70
41628;DHT22;27321;50.816;6.054;2024-03-17T10:38:03;13.80;65.00
41628;DHT22;27321;50.816;6.054;2024-03-17T10:41:06;13.80;65.60
41628;DHT22;27321;50.816;6.054;2024-03-17T10:44:10;13.80;65.50
41628;DHT22;27321;50.816;6.054;2024-03-17T10:47:20;13.80;65.40
41628;DHT22;27321;50.816;6.054;2024-03-17T10:50:25;13.80;65.40
41628;DHT22;27321;50.816;6.054;2024-03-17T10:53:31;13.80;65.30
41628;DHT22;27321;50.816;6.054;2024-03-17T10:56:32;13.80;64.90
41628;DHT22;27321;50.816;6.054;2024-03-17T10:59:41;13.90;64.80
41628;DHT22;27321;50.816;6.054;2024-03-17T11:02:44;13.90;64.10
41628;DHT22;27321;50.816;6.054;2024-03-17T11:05:48;14.00;65.20
41628;DHT22;27321;50.816;6.054;2024-03-17T11:08:51;14.00;65.10
41628;DHT22;27321;50.816;6.054;2024-03-17T11:11:52;14.10;65.10
41628;DHT22;27321;50.816;6.054;2024-03-17T11:21:22;14.10;65.20
41628;DHT22;27321;50.816;6.054;2024-03-17T11:24:27;14.20;64.90
41628;DHT22;27321;50.816;6.054;2024-03-17T11:27:41;14.30;64.50
41628;DHT22;27321;50.816;6.054;2024-03-17T11:34:31;14.40;65.30
41628;DHT22;27321;50.816;6.054;2024-03-17T11:37:43;14.50;64.70
41628;DHT22;27321;50.816;6.054;2024-03-17T11:40:44;14.50;64.40
41628;DHT22;27321;50.816;6.054;2024-03-17T11:43:45;14.60;64.40
41628;DHT22;27321;50.816;6.054;2024-03-17T11:47:06;14.70;64.20
41628;DHT22;27321;50.816;6.054;2024-03-17T11:50:09;14.70;64.50
41628;DHT22;27321;50.816;6.054;2024-03-17T11:53:11;14.70;63.80
41628;DHT22;27321;50.816;6.054;2024-03-17T11:56:12;14.70;63.50
41628;DHT22;27321;50.816;6.054;2024-03-17T11:59:13;14.70;63.70
41628;DHT22;27321;50.816;6.054;2024-03-17T12:02:20;14.70;63.50
41628;DHT22;27321;50.816;6.054;2024-03-17T12:05:23;14.70;63.30
41628;DHT22;27321;50.816;6.054;2024-03-17T12:08:24;14.70;63.50
41628;DHT22;27321;50.816;6.054;2024-03-17T12:11:25;14.70;63.50
41628;DHT22;27321;50.816;6.054;2024-03-17T12:14:30;14.70;63.60
41628;DHT22;27321;50.816;6.054;2024-03-17T12:17:31;14.80;63.60
41628;DHT22;27321;50.816;6.054;2024-03-17T12:20:33;14.80;63.40
41628;DHT22;27321;50.816;6.054;2024-03-17T12:23:34;14.80;63.30
41628;DHT22;27321;50.816;6.054;2024-03-17T12:26:34;14.80;63.80
41628;DHT22;27321;50.816;6.054;2024-03-17T12:29:37;14.90;64.00
41628;DHT22;27321;50.816;6.054;2024-03-17T12:32:41;14.90;63.40
41628;DHT22;27321;50.816;6.054;2024-03-17T12:35:42;14.90;63.20
41628;DHT22;27321;50.816;6.054;2024-03-17T12:38:43;14.90;63.50
41628;DHT22;27321;50.816;6.054;2024-03-17T12:42:05;14.90;63.60
41628;DHT22;27321;50.816;6.054;2024-03-17T12:45:10;14.90;63.40
41628;DHT22;27321;50.816;6.054;2024-03-17T12:48:14;14.80;62.20
41628;DHT22;27321;50.816;6.054;2024-03-17T12:51:15;14.80;62.10
41628;DHT22;27321;50.816;6.054;2024-03-17T12:54:20;14.80;62.60
41628;DHT22;27321;50.816;6.054;2024-03-17T12:57:22;14.90;62.10
41628;DHT22;27321;50.816;6.054;2024-03-17T13:00:41;14.90;61.70
41628;DHT22;27321;50.816;6.054;2024-03-17T13:03:42;15.00;61.60
41628;DHT22;27321;50.816;6.054;2024-03-17T13:06:44;15.10;61.80
41628;DHT22;27321;50.816;6.054;2024-03-17T13:09:45;15.20;61.20
41628;DHT22;27321;50.816;6.054;2024-03-17T13:12:48;15.30;61.30
41628;DHT22;27321;50.816;6.054;2024-03-17T13:15:49;15.40;60.30
41628;DHT22;27321;50.816;6.054;2024-03-17T13:18:51;15.50;59.90
41628;DHT22;27321;50.816;6.054;2024-03-17T13:21:52;15.60;60.30
41628;DHT22;27321;50.816;6.054;2024-03-17T13:24:52;15.60;59.30
41628;DHT22;27321;50.816;6.054;2024-03-17T13:27:53;15.60;59.20
41628;DHT22;27321;50.816;6.054;2024-03-17T13:30:54;15.70;59.40
41628;DHT22;27321;50.816;6.054;2024-03-17T13:33:55;15.80;59.10
41628;DHT22;27321;50.816;6.054;2024-03-17T13:36:56;15.80;59.30
41628;DHT22;27321;50.816;6.054;2024-03-17T13:39:58;15.90;59.70
41628;DHT22;27321;50.816;6.054;2024-03-17T13:42:59;16.00;59.70
41628;DHT22;27321;50.816;6.054;2024-03-17T13:45:59;16.00;58.80
41628;DHT22;27321;50.816;6.054;2024-03-17T13:49:08;16.00;59.00
41628;DHT22;27321;50.816;6.054;2024-03-17T13:52:09;15.90;58.90
41628;DHT22;27321;50.816;6.054;2024-03-17T13:58:16;15.90;58.90
41628;DHT22;27321;50.816;6.054;2024-03-17T14:01:18;15.90;59.20
41628;DHT22;27321;50.816;6.054;2024-03-17T14:04:19;15.90;58.80
41628;DHT22;27321;50.816;6.054;2024-03-17T14:07:20;15.90;58.80
41628;DHT22;27321;50.816;6.054;2024-03-17T14:10:23;16.00;58.20
41628;DHT22;27321;50.816;6.054;2024-03-17T14:13:25;16.00;58.10
41628;DHT22;27321;50.816;6.054;2024-03-17T14:16:26;16.00;58.70
41628;DHT22;27321;50.816;6.054;2024-03-17T14:19:32;16.00;58.10
41628;DHT22;27321;50.816;6.054;2024-03-17T14:22:33;16.00;58.30
41628;DHT22;27321;50.816;6.054;2024-03-17T14:25:34;16.00;58.80
41628;DHT22;27321;50.816;6.054;2024-03-17T14:28:35;15.90;58.50
41628;DHT22;27321;50.816;6.054;2024-03-17T14:31:37;16.00;58.50
41628;DHT22;27321;50.816;6.054;2024-03-17T14:34:38;16.00;58.30
41628;DHT22;27321;50.816;6.054;2024-03-17T14:37:39;15.90;58.50
41628;DHT22;27321;50.816;6.054;2024-03-17T14:40:42;16.00;58.20
41628;DHT22;27321;50.816;6.054;2024-03-17T14:43:44;16.00;58.00
41628;DHT22;27321;50.816;6.054;2024-03-17T14:46:49;16.10;58.00
41628;DHT22;27321;50.816;6.054;2024-03-17T14:49:53;16.10;57.90
41628;DHT22;27321;50.816;6.054;2024-03-17T14:52:55;16.10;57.40
41628;DHT22;27321;50.816;6.054;2024-03-17T14:55:56;16.10;57.90
41628;DHT22;27321;50.816;6.054;2024-03-17T14:58:57;16.20;58.20
41628;DHT22;27321;50.816;6.054;2024-03-17T15:01:58;16.30;58.40
41628;DHT22;27321;50.816;6.054;2024-03-17T15:04:59;16.30;58.70
41628;DHT22;27321;50.816;6.054;2024-03-17T15:07:59;16.30;58.70
41628;DHT22;27321;50.816;6.054;2024-03-17T15:11:02;16.30;58.20
41628;DHT22;27321;50.816;6.054;2024-03-17T15:14:03;16.30;58.10
41628;DHT22;27321;50.816;6.054;2024-03-17T15:17:09;16.30;58.00
41628;DHT22;27321;50.816;6.054;2024-03-17T15:20:11;16.20;57.30
41628;DHT22;27321;50.816;6.054;2024-03-17T15:23:19;16.20;57.90
41628;DHT22;27321;50.816;6.054;2024-03-17T15:26:20;16.20;57.60
41628;DHT22;27321;50.816;6.054;2024-03-17T15:29:21;16.20;58.30
41628;DHT22;27321;50.816;6.054;2024-03-17T15:32:22;16.20;58.70
41628;DHT22;27321;50.816;6.054;2024-03-17T15:35:23;16.20;58.70
41628;DHT22;27321;50.816;6.054;2024-03-17T15:38:25;16.30;58.90
41628;DHT22;27321;50.816;6.054;2024-03-17T15:41:26;16.30;59.20
41628;DHT22;27321;50.816;6.054;2024-03-17T15:44:27;16.40;59.30
41628;DHT22;27321;50.816;6.054;2024-03-17T15:47:28;16.30;59.00
41628;DHT22;27321;50.816;6.054;2024-03-17T15:50:29;16.40;59.40
41628;DHT22;27321;50.816;6.054;2024-03-17T15:53:31;16.50;59.40
41628;DHT22;27321;50.816;6.054;2024-03-17T15:56:33;16.50;58.90
41628;DHT22;27321;50.816;6.054;2024-03-17T15:59:34;16.40;58.60
41628;DHT22;27321;50.816;6.054;2024-03-17T16:02:36;16.40;58.60
41628;DHT22;27321;50.816;6.054;2024-03-17T16:05:38;16.40;58.70
41628;DHT22;27321;50.816;6.054;2024-03-17T16:08:46;16.50;58.60
41628;DHT22;27321;50.816;6.054;2024-03-17T16:11:48;16.50;58.50
41628;DHT22;27321;50.816;6.054;2024-03-17T16:14:50;16.50;58.60
41628;DHT22;27321;50.816;6.054;2024-03-17T16:17:51;16.40;58.50
41628;DHT22;27321;50.816;6.054;2024-03-17T16:21:12;16.40;58.00
41628;DHT22;27321;50.816;6.054;2024-03-17T16:24:19;16.30;58.30
41628;DHT22;27321;50.816;6.054;2024-03-17T16:27:20;16.20;58.50
41628;DHT22;27321;50.816;6.054;2024-03-17T16:30:21;16.10;59.00
41628;DHT22;27321;50.816;6.054;2024-03-17T16:33:23;16.00;58.90
41628;DHT22;27321;50.816;6.054;2024-03-17T16:36:25;16.00;59.30
41628;DHT22;27321;50.816;6.054;2024-03-17T16:39:26;15.90;59.50
41628;DHT22;27321;50.816;6.054;2024-03-17T16:42:29;15.90;59.80
41628;DHT22;27321;50.816;6.054;2024-03-17T16:45:30;15.90;59.90
41628;DHT22;27321;50.816;6.054;2024-03-17T16:48:31;15.80;59.80
41628;DHT22;27321;50.816;6.054;2024-03-17T16:51:33;15.80;59.60
41628;DHT22;27321;50.816;6.054;2024-03-17T16:54:35;15.80;59.90
41628;DHT22;27321;50.816;6.054;2024-03-17T16:57:40;15.80;60.00
41628;DHT22;27321;50.816;6.054;2024-03-17T17:00:40;15.70;59.90
41628;DHT22;27321;50.816;6.054;2024-03-17T17:03:41;15.70;60.00
41628;DHT22;27321;50.816;6.054;2024-03-17T17:06:42;15.70;60.20
41628;DHT22;27321;50.816;6.054;2024-03-17T17:09:45;15.70;60.60
41628;DHT22;27321;50.816;6.054;2024-03-17T17:12:45;15.70;60.50
41628;DHT22;27321;50.816;6.054;2024-03-17T17:15:46;15.70;60.60
41628;DHT22;27321;50.816;6.054;2024-03-17T17:19:03;15.60;60.30
41628;DHT22;27321;50.816;6.054;2024-03-17T17:22:10;15.60;60.80
41628;DHT22;27321;50.816;6.054;2024-03-17T17:25:14;15.60;61.20
41628;DHT22;27321;50.816;6.054;2024-03-17T17:28:15;15.60;61.10
41628;DHT22;27321;50.816;6.054;2024-03-17T17:31:16;15.50;61.20
41628;DHT22;27321;50.816;6.054;2024-03-17T17:34:18;15.50;61.00
41628;DHT22;27321;50.816;6.054;2024-03-17T17:37:18;15.40;60.70
41628;DHT22;27321;50.816;6.054;2024-03-17T17:40:19;15.30;60.80
41628;DHT22;27321;50.816;6.054;2024-03-17T17:43:20;15.30;61.30
41628;DHT22;27321;50.816;6.054;2024-03-17T17:46:22;15.30;61.70
41628;DHT22;27321;50.816;6.054;2024-03-17T17:49:26;15.30;62.00
41628;DHT22;27321;50.816;6.054;2024-03-17T17:52:27;15.30;62.50
41628;DHT22;27321;50.816;6.054;2024-03-17T17:55:31;15.20;62.90
41628;DHT22;27321;50.816;6.054;2024-03-17T17:58:37;15.10;63.10
41628;DHT22;27321;50.816;6.054;2024-03-17T18:01:39;15.10;63.20
41628;DHT22;27321;50.816;6.054;2024-03-17T18:04:40;15.00;62.80
41628;DHT22;27321;50.816;6.054;2024-03-17T18:07:41;15.00;63.10
41628;DHT22;27321;50.816;6.054;2024-03-17T18:10:43;14.90;62.80
41628;DHT22;27321;50.816;6.054;2024-03-17T18:13:45;14.90;63.00
41628;DHT22;27321;50.816;6.054;2024-03-17T18:16:46;14.90;63.00
41628;DHT22;27321;50.816;6.054;2024-03-17T18:19:51;14.90;63.20
41628;DHT22;27321;50.816;6.054;2024-03-17T18:22:52;14.90;63.40
41628;DHT22;27321;50.816;6.054;2024-03-17T18:25:53;14.80;63.30
41628;DHT22;27321;50.816;6.054;2024-03-17T18:29:03;14.90;63.10
41628;DHT22;27321;50.816;6.054;2024-03-17T18:32:08;14.80;63.40
41628;DHT22;27321;50.816;6.054;2024-03-17T18:35:18;14.70;63.60
41628;DHT22;27321;50.816;6.054;2024-03-17T18:38:22;14.70;63.60
41628;DHT22;27321;50.816;6.054;2024-03-17T18:41:25;14.70;63.80
41628;DHT22;27321;50.816;6.054;2024-03-17T18:44:27;14.80;64.20
41628;DHT22;27321;50.816;6.054;2024-03-17T18:47:29;14.70;64.20
41628;DHT22;27321;50.816;6.054;2024-03-17T18:50:29;14.70;64.50
41628;DHT22;27321;50.816;6.054;2024-03-17T18:53:31;14.70;64.50
41628;DHT22;27321;50.816;6.054;2024-03-17T18:56:33;14.70;64.80
41628;DHT22;27321;50.816;6.054;2024-03-17T18:59:37;14.70;65.00
41628;DHT22;27321;50.816;6.054;2024-03-17T19:02:38;14.60;64.80
41628;DHT22;27321;50.816;6.054;2024-03-17T19:05:40;14.70;64.90
41628;DHT22;27321;50.816;6.054;2024-03-17T19:08:44;14.60;65.00
41628;DHT22;27321;50.816;6.054;2024-03-17T19:11:46;14.60;65.00
41628;DHT22;27321;50.816;6.054;2024-03-17T19:15:17;14.60;65.00
41628;DHT22;27321;50.816;6.054;2024-03-17T19:18:18;14.60;65.10
41628;DHT22;27321;50.816;6.054;2024-03-17T19:21:19;14.60;65.00
41628;DHT22;27321;50.816;6.054;2024-03-17T19:24:20;14.60;65.20
41628;DHT22;27321;50.816;6.054;2024-03-17T19:27:24;14.60;64.80
41628;DHT22;27321;50.816;6.054;2024-03-17T19:30:34;14.50;64.70
41628;DHT22;27321;50.816;6.054;2024-03-17T19:33:36;14.50;64.70